Aviation Digital Data Service (ADDS)

Output produced by METARs form (2228 UTC 23 March 2019)
found at http://www.aviationweather.gov/metar/data/
 
METAR text: RJNT 232200Z VRB02KT 9999 -SHRA FEW010 BKN025 03/01 Q1019
Conditions at: RJNT (TOYAMA AIRPORT , JP) observed 2200 UTC 23 March 2019
Temperature: 3.0°C (37°F)
Dewpoint: 1.0°C (34°F) [RH = 87%]
Pressure (altimeter): 30.09 inches Hg (1019.0 mb)
Winds: variable direction winds at 2 MPH (2 knots; 1.0 m/s)
Visibility: 6 or more miles (10+ km)
Ceiling: 2500 feet AGL
Clouds: few clouds at 1000 feet AGL
broken clouds at 2500 feet AGL
Weather: -SHRA  (light rain showers)

METAR text: RJNT 232110Z VRB01KT 9999 -SHRA FEW010 SCT020 03/00 Q1018 RMK 1ST010 4CU020 A3008
Conditions at: RJNT (TOYAMA AIRPORT , JP) observed 2110 UTC 23 March 2019
Temperature: 3.0°C (37°F)
Dewpoint: 0.0°C (32°F) [RH = 81%]
Pressure (altimeter): 30.06 inches Hg (1018.0 mb)
Winds: variable direction winds at 1 MPH (1 knots; 0.5 m/s)
Visibility: 6 or more miles (10+ km)
Ceiling: at least 12,000 feet AGL
Clouds: few clouds at 1000 feet AGL
scattered clouds at 2000 feet AGL
Weather: -SHRA  (light rain showers)

METAR text: RJNT 231200Z 20004KT 9999 FEW040 03/M02 Q1014
Conditions at: RJNT (TOYAMA AIRPORT , JP) observed 1200 UTC 23 March 2019
Temperature: 3.0°C (37°F)
Dewpoint: -2.0°C (28°F) [RH = 70%]
Pressure (altimeter): 29.94 inches Hg (1014.0 mb)
Winds: from the SSW (200 degrees) at 5 MPH (4 knots; 2.1 m/s)
Visibility: 6 or more miles (10+ km)
Ceiling: at least 12,000 feet AGL
Clouds: few clouds at 4000 feet AGL
Weather: no significant weather observed at this time

METAR text: RJNT 231100Z VRB02KT 9999 FEW050 04/M03 Q1014
Conditions at: RJNT (TOYAMA AIRPORT , JP) observed 1100 UTC 23 March 2019
Temperature: 4.0°C (39°F)
Dewpoint: -3.0°C (27°F) [RH = 60%]
Pressure (altimeter): 29.94 inches Hg (1014.0 mb)
Winds: variable direction winds at 2 MPH (2 knots; 1.0 m/s)
Visibility: 6 or more miles (10+ km)
Ceiling: at least 12,000 feet AGL
Clouds: few clouds at 5000 feet AGL
Weather: no significant weather observed at this time

METAR text: RJNT 231000Z 32005KT 9999 VCSH FEW030 SCT050 BKN/// 04/M05 Q1015
Conditions at: RJNT (TOYAMA AIRPORT , JP) observed 1000 UTC 23 March 2019
Temperature: 4.0°C (39°F)
Dewpoint: -5.0°C (23°F) [RH = 52%]
Pressure (altimeter): 29.97 inches Hg (1015.0 mb)
Winds: from the NW (320 degrees) at 6 MPH (5 knots; 2.6 m/s)
Visibility: 6 or more miles (10+ km)
Ceiling: at least 12,000 feet AGL
Clouds: few clouds at 3000 feet AGL
scattered clouds at 5000 feet AGL
Weather: VCSH  (showers in vicinity)

METAR text: RJNT 230900Z 32007KT 9999 VCSH FEW030 SCT050 BKN/// 06/M05 Q1014
Conditions at: RJNT (TOYAMA AIRPORT , JP) observed 0900 UTC 23 March 2019
Temperature: 6.0°C (43°F)
Dewpoint: -5.0°C (23°F) [RH = 45%]
Pressure (altimeter): 29.94 inches Hg (1014.0 mb)
Winds: from the NW (320 degrees) at 8 MPH (7 knots; 3.6 m/s)
Visibility: 6 or more miles (10+ km)
Ceiling: at least 12,000 feet AGL
Clouds: few clouds at 3000 feet AGL
scattered clouds at 5000 feet AGL
Weather: VCSH  (showers in vicinity)

METAR text: RJNT 230800Z 02005KT 320V050 9999 FEW030 SCT050 BKN120 07/M05 Q1014
Conditions at: RJNT (TOYAMA AIRPORT , JP) observed 0800 UTC 23 March 2019
Temperature: 7.0°C (45°F)
Dewpoint: -5.0°C (23°F) [RH = 42%]
Pressure (altimeter): 29.94 inches Hg (1014.0 mb)
Winds: from the NNE (20 degrees) at 6 MPH (5 knots; 2.6 m/s)
Visibility: 6 or more miles (10+ km)
Ceiling: 12000 feet AGL
Clouds: few clouds at 3000 feet AGL
scattered clouds at 5000 feet AGL
broken clouds at 12000 feet AGL
Weather: no significant weather observed at this time

METAR text: RJNT 230700Z 01007KT 9999 VCSH FEW040 SCT120 BKN/// 07/M05 Q1014
Conditions at: RJNT (TOYAMA AIRPORT , JP) observed 0700 UTC 23 March 2019
Temperature: 7.0°C (45°F)
Dewpoint: -5.0°C (23°F) [RH = 42%]
Pressure (altimeter): 29.94 inches Hg (1014.0 mb)
Winds: from the N (10 degrees) at 8 MPH (7 knots; 3.6 m/s)
Visibility: 6 or more miles (10+ km)
Ceiling: at least 12,000 feet AGL
Clouds: few clouds at 4000 feet AGL
scattered clouds at 12000 feet AGL
Weather: VCSH  (showers in vicinity)

METAR text: RJNT 230600Z 35008KT 9999 SCT040 BKN120 BKN/// 07/M06 Q1014
Conditions at: RJNT (TOYAMA AIRPORT , JP) observed 0600 UTC 23 March 2019
Temperature: 7.0°C (45°F)
Dewpoint: -6.0°C (21°F) [RH = 39%]
Pressure (altimeter): 29.94 inches Hg (1014.0 mb)
Winds: from the N (350 degrees) at 9 MPH (8 knots; 4.1 m/s)
Visibility: 6 or more miles (10+ km)
Ceiling: 12000 feet AGL
Clouds: scattered clouds at 4000 feet AGL
broken clouds at 12000 feet AGL
Weather: no significant weather observed at this time

METAR text: RJNT 230500Z 36008KT 310V040 9999 SCT035 BKN100 08/M03 Q1014
Conditions at: RJNT (TOYAMA AIRPORT , JP) observed 0500 UTC 23 March 2019
Temperature: 8.0°C (46°F)
Dewpoint: -3.0°C (27°F) [RH = 46%]
Pressure (altimeter): 29.94 inches Hg (1014.0 mb)
Winds: from the N (360 degrees) at 9 MPH (8 knots; 4.1 m/s)
Visibility: 6 or more miles (10+ km)
Ceiling: 10000 feet AGL
Clouds: scattered clouds at 3500 feet AGL
broken clouds at 10000 feet AGL
Weather: no significant weather observed at this time

METAR text: RJNT 230400Z 33005KT 290V020 9999 FEW030 SCT100 BKN/// 08/M04 Q1015
Conditions at: RJNT (TOYAMA AIRPORT , JP) observed 0400 UTC 23 March 2019
Temperature: 8.0°C (46°F)
Dewpoint: -4.0°C (25°F) [RH = 42%]
Pressure (altimeter): 29.97 inches Hg (1015.0 mb)
Winds: from the NNW (330 degrees) at 6 MPH (5 knots; 2.6 m/s)
Visibility: 6 or more miles (10+ km)
Ceiling: at least 12,000 feet AGL
Clouds: few clouds at 3000 feet AGL
scattered clouds at 10000 feet AGL
Weather: no significant weather observed at this time

METAR text: RJNT 230300Z 34005G15KT 280V080 9999 FEW030 SCT100 BKN150 07/M03 Q1016
Conditions at: RJNT (TOYAMA AIRPORT , JP) observed 0300 UTC 23 March 2019
Temperature: 7.0°C (45°F)
Dewpoint: -3.0°C (27°F) [RH = 49%]
Pressure (altimeter): 30.00 inches Hg (1016.0 mb)
Winds: from the NNW (340 degrees) at 6 MPH (5 knots; 2.6 m/s)
gusting to 17 MPH (15 knots; 7.7 m/s)
Visibility: 6 or more miles (10+ km)
Ceiling: 15000 feet AGL
Clouds: few clouds at 3000 feet AGL
scattered clouds at 10000 feet AGL
broken clouds at 15000 feet AGL
Weather: no significant weather observed at this time

METAR text: RJNT 230200Z 25005KT 190V290 9999 FEW030 SCT150 BKN/// 06/M03 Q1017
Conditions at: RJNT (TOYAMA AIRPORT , JP) observed 0200 UTC 23 March 2019
Temperature: 6.0°C (43°F)
Dewpoint: -3.0°C (27°F) [RH = 52%]
Pressure (altimeter): 30.03 inches Hg (1017.0 mb)
Winds: from the WSW (250 degrees) at 6 MPH (5 knots; 2.6 m/s)
Visibility: 6 or more miles (10+ km)
Ceiling: at least 12,000 feet AGL
Clouds: few clouds at 3000 feet AGL
scattered clouds at 15000 feet AGL
Weather: no significant weather observed at this time

METAR text: RJNT 230100Z 30003KT 230V350 9999 FEW030 BKN/// 06/M04 Q1017
Conditions at: RJNT (TOYAMA AIRPORT , JP) observed 0100 UTC 23 March 2019
Temperature: 6.0°C (43°F)
Dewpoint: -4.0°C (25°F) [RH = 49%]
Pressure (altimeter): 30.03 inches Hg (1017.0 mb)
Winds: from the WNW (300 degrees) at 3 MPH (3 knots; 1.5 m/s)
Visibility: 6 or more miles (10+ km)
Ceiling: at least 12,000 feet AGL
Clouds: few clouds at 3000 feet AGL
Weather: no significant weather observed at this time

METAR text: RJNT 230000Z 18003KT 100V240 9999 FEW020 SCT070 BKN/// 05/M03 Q1017
Conditions at: RJNT (TOYAMA AIRPORT , JP) observed 0000 UTC 23 March 2019
Temperature: 5.0°C (41°F)
Dewpoint: -3.0°C (27°F) [RH = 56%]
Pressure (altimeter): 30.03 inches Hg (1017.0 mb)
Winds: from the S (180 degrees) at 3 MPH (3 knots; 1.5 m/s)
Visibility: 6 or more miles (10+ km)
Ceiling: at least 12,000 feet AGL
Clouds: few clouds at 2000 feet AGL
scattered clouds at 7000 feet AGL
Weather: no significant weather observed at this time

METAR text: RJNT 222300Z 22004KT 180V240 9999 FEW010 SCT050 BKN070 05/M00 Q1017
Conditions at: RJNT (TOYAMA AIRPORT , JP) observed 2300 UTC 22 March 2019
Temperature: 5.0°C (41°F)
Dewpoint: 0.0°C (32°F) [RH = 70%]
Pressure (altimeter): 30.03 inches Hg (1017.0 mb)
Winds: from the SW (220 degrees) at 5 MPH (4 knots; 2.1 m/s)
Visibility: 6 or more miles (10+ km)
Ceiling: 7000 feet AGL
Clouds: few clouds at 1000 feet AGL
scattered clouds at 5000 feet AGL
broken clouds at 7000 feet AGL
Weather: no significant weather observed at this time

METAR text: RJNT 222200Z 20003KT 160V220 9999 VCSH FEW005 SCT010 BKN050 04/00 Q1017
Conditions at: RJNT (TOYAMA AIRPORT , JP) observed 2200 UTC 22 March 2019
Temperature: 4.0°C (39°F)
Dewpoint: 0.0°C (32°F) [RH = 75%]
Pressure (altimeter): 30.03 inches Hg (1017.0 mb)
Winds: from the SSW (200 degrees) at 3 MPH (3 knots; 1.5 m/s)
Visibility: 6 or more miles (10+ km)
Ceiling: 5000 feet AGL
Clouds: few clouds at 500 feet AGL
scattered clouds at 1000 feet AGL
broken clouds at 5000 feet AGL
Weather: VCSH  (showers in vicinity)

METAR text: RJNT 222110Z 24005KT 9999 VCSH FEW020 BKN050 04/M00 Q1017 RMK 1CU020 7SC050 A3004
Conditions at: RJNT (TOYAMA AIRPORT , JP) observed 2110 UTC 22 March 2019
Temperature: 4.0°C (39°F)
Dewpoint: 0.0°C (32°F) [RH = 75%]
Pressure (altimeter): 30.03 inches Hg (1017.0 mb)
Winds: from the WSW (240 degrees) at 6 MPH (5 knots; 2.6 m/s)
Visibility: 6 or more miles (10+ km)
Ceiling: 5000 feet AGL
Clouds: few clouds at 2000 feet AGL
broken clouds at 5000 feet AGL
Weather: VCSH  (showers in vicinity)

METAR text: RJNT 221200Z 31003KT 250V360 9999 FEW020 BKN040 05/M01 Q1017
Conditions at: RJNT (TOYAMA AIRPORT , JP) observed 1200 UTC 22 March 2019
Temperature: 5.0°C (41°F)
Dewpoint: -1.0°C (30°F) [RH = 65%]
Pressure (altimeter): 30.03 inches Hg (1017.0 mb)
Winds: from the NW (310 degrees) at 3 MPH (3 knots; 1.5 m/s)
Visibility: 6 or more miles (10+ km)
Ceiling: 4000 feet AGL
Clouds: few clouds at 2000 feet AGL
broken clouds at 4000 feet AGL
Weather: no significant weather observed at this time

METAR text: RJNT 221100Z 32004KT 9999 VCSH FEW020 BKN040 06/M02 Q1016
Conditions at: RJNT (TOYAMA AIRPORT , JP) observed 1100 UTC 22 March 2019
Temperature: 6.0°C (43°F)
Dewpoint: -2.0°C (28°F) [RH = 56%]
Pressure (altimeter): 30.00 inches Hg (1016.0 mb)
Winds: from the NW (320 degrees) at 5 MPH (4 knots; 2.1 m/s)
Visibility: 6 or more miles (10+ km)
Ceiling: 4000 feet AGL
Clouds: few clouds at 2000 feet AGL
broken clouds at 4000 feet AGL
Weather: VCSH  (showers in vicinity)

Forecast for: RJNT (TOYAMA AIRPORT , JP)
Text: TAF RJNT 231705Z 2318/2500 24010KT 8000 -SHSN FEW010 BKN015
Forecast period: 1800 UTC 23 March 2019 to 1200 UTC 24 March 2019
Forecast type: FROM: standard forecast or significant change
Winds: from the WSW (240 degrees) at 12 MPH (10 knots; 5.1 m/s)
Visibility: 5 miles (8 km)
Ceiling: 1500 feet AGL
Clouds: few clouds at 1000 feet AGL
broken clouds at 1500 feet AGL
Weather: -SHSN  (light snow showers)
Text: TEMPO 2318/2319 1500 -TSSNGS FEW003 BKN007 FEW020CB
Forecast period: 1800 to 1900 UTC 23 March 2019
Forecast type: TEMPORARY: The following changes expected for less than half the time period
Visibility: 0.93 miles (1.50 km)
Ceiling: 700 feet AGL
Clouds: few clouds at 300 feet AGL
broken clouds at 700 feet AGL
few clouds at 2000 feet AGL
Weather: -TSSN -TSGS  (light snow associated with thunderstorm(s), unknown weather)
Text: BECMG 2412/2415 18010KT
Forecast period: 1200 UTC 24 March 2019 to 0000 UTC 25 March 2019
Forecast type: BECOMING: Conditions expected to become as follows by 1500 UTC 24 March 2019
Winds: from the S (180 degrees) at 12 MPH (10 knots; 5.1 m/s)
Visibility: 5 miles (8 km)
Ceiling: 1500 feet AGL
Clouds: few clouds at 1000 feet AGL
broken clouds at 1500 feet AGL
Weather: -SHSN  (light snow showers)